Terminal Aerodrome Forecast
Issued by NWS

Home | Current Version | Previous Version | Text Only | Print | Product List | Glossary On
Versions: 1 2 3 4 5 6 7 8 9 10 11 12 13 14 15 16 17 18 19 20 21
312
FTUS41 KPHI 262111 AAA
TAFMIV
TAF AMD
KMIV 262111Z 2621/2718 33004KT P6SM OVC018
     FM270000 VRB03KT P6SM BKN022
     FM270700 00000KT 2SM BR BKN003 BKN035
     FM271200 15003KT 3SM BR BKN035
     FM271400 15006KT P6SM BKN035=

USA.gov is the U.S. government's official web portal to all federal, state and local government web resources and services.